Portland Hillsboro Airport
KHIO : rendu visible

Aérodrome :











RETROUVEZ-NOUS SUR...

 
LOGIN :

S'inscrire | Disclaimer

   EN    FR    IT 

 









Légende :    VFR   VFR Marginal   IFR   IFR Intensif   IFR Très Intensif
Visi : 
Plafond : 
>= 8 km
>= 3000ft
5 à 8 km
1000 à 3000 ft
1500m à 5 km
500 à 1000 ft
800 à 1500m
200 à 500 ft
< 800m
< 200 ft
Symboles :   Orages  Brouillard  Fortes neiges  Fortes précipitations  Vent > 20 kt






- Altitude de l'aérodrome : 208 ft


KHIO - Portland Hillsboro

DERNIER METAR :
  • 290553Z AUTO 15007KT 10SM OVC034 09/07 A2996 RMK AO2 SLP144 60001 T00940072 10117 20094 54000

METARs EXPIRÉS :
  • 290453Z AUTO 17008KT 10SM OVC035 10/07 A2996 RMK AO2 SLP145 T01000072
  • 290353Z 17011KT 10SM OVC036 10/07 A2995 RMK AO2 RAB06E24 SLP143 P0000 T01000072

TAF KHIO
Valide du 29 à 06h jusqu'au 30 à 06h UTC


290536Z 2906/3006 18010KT P6SM -SHRA SCT025 OVC045
FM291300 17006KT P6SM -SHRA SCT010 OVC021
FM292000 20011KT P6SM -SHRA SCT030 BKN050



MET'MAP, la Météo Aéronautique d'un coup d'oeil ! - Copyright ORBIFLY Décembre 2007 - Disclaimer

ORBIFLY MET'MAP TEAM :

Programmation & Développement : Alexandra Zaïnal
Sur une idée originale de : Baudouin d'Aumeries
Assistance à la programmation : Marc-Olivier Méhu
Soutien technique & logistique : Manuel Goepfert

Contact : metmap@orbifly.com




SOURCES & CREDITS :

   NOAA       Earth
Advisory